createdAt,value
2019-06-20T00:00:10.249Z,5.63
2019-06-20T00:05:04.164Z,5.50
2019-06-20T00:09:57.564Z,5.33
2019-06-20T00:14:50.891Z,6.50
2019-06-20T00:19:44.275Z,5.40
2019-06-20T00:24:37.634Z,6.53
2019-06-20T00:29:30.983Z,5.80
2019-06-20T00:34:24.297Z,6.03
2019-06-20T00:39:18.006Z,5.27
2019-06-20T00:44:11.345Z,5.37
2019-06-20T00:49:05.072Z,5.40
2019-06-20T00:53:58.380Z,6.17
2019-06-20T00:58:53.486Z,4.90
2019-06-20T01:03:46.805Z,6.20
2019-06-20T01:08:40.155Z,5.60
2019-06-20T01:13:34.500Z,5.90
2019-06-20T01:18:26.920Z,6.03
2019-06-20T01:23:20.350Z,5.40
2019-06-20T01:28:13.695Z,6.10
2019-06-20T01:33:07.050Z,6.37
2019-06-20T01:38:00.885Z,5.57
2019-06-20T01:42:54.242Z,5.33
2019-06-20T01:47:47.602Z,5.30
2019-06-20T01:52:40.949Z,5.80
2019-06-20T01:57:34.277Z,6.03
2019-06-20T02:02:28.021Z,5.37
2019-06-20T02:07:21.758Z,5.57
2019-06-20T02:12:15.060Z,6.27
2019-06-20T02:17:08.408Z,5.90
2019-06-20T02:22:01.829Z,5.87
2019-06-20T02:26:55.560Z,6.67
2019-06-20T02:31:48.889Z,5.63
2019-06-20T02:36:42.233Z,6.10
2019-06-20T02:41:35.686Z,6.30
2019-06-20T02:46:29.071Z,6.13
2019-06-20T02:51:22.413Z,5.10
2019-06-20T02:56:15.778Z,6.07
2019-06-20T03:01:09.118Z,5.73
2019-06-20T03:06:04.919Z,6.20
2019-06-20T03:10:58.234Z,6.73
2019-06-20T03:15:51.904Z,6.77
2019-06-20T03:20:45.225Z,7.10
2019-06-20T03:25:38.575Z,6.53
2019-06-20T03:30:31.903Z,7.20
2019-06-20T03:35:25.277Z,7.67
2019-06-20T03:40:18.584Z,7.40
2019-06-20T03:45:12.249Z,7.70
2019-06-20T03:50:05.920Z,7.13
2019-06-20T03:54:59.277Z,8.07
2019-06-20T03:59:52.607Z,7.47
2019-06-20T04:04:45.985Z,8.27
2019-06-20T04:09:39.589Z,7.17
2019-06-20T04:14:33.149Z,7.70
2019-06-20T04:19:26.501Z,6.77
2019-06-20T04:24:19.872Z,6.93
2019-06-20T04:29:13.282Z,7.67
2019-06-20T04:34:06.658Z,8.03
2019-06-20T04:39:00.266Z,7.80
2019-06-20T04:43:53.598Z,9.07
2019-06-20T04:48:46.921Z,7.50
2019-06-20T04:53:40.341Z,8.73
2019-06-20T04:58:35.502Z,8.17
2019-06-20T05:03:29.415Z,7.93
2019-06-20T05:08:22.710Z,7.67
2019-06-20T05:13:17.073Z,8.87
2019-06-20T05:18:10.473Z,9.63
2019-06-20T05:23:03.785Z,10.17
2019-06-20T05:27:57.123Z,9.93
2019-06-20T05:32:50.491Z,9.83
2019-06-20T05:37:43.811Z,12.53
2019-06-20T05:42:37.216Z,12.40
2019-06-20T05:47:31.482Z,16.27
2019-06-20T05:52:24.098Z,14.83
2019-06-20T05:57:17.415Z,7.97
2019-06-20T06:02:10.767Z,6.13
2019-06-20T06:07:04.097Z,4.73
2019-06-20T06:11:57.630Z,4.57
2019-06-20T06:16:51.106Z,3.70
2019-06-20T06:21:44.443Z,3.23
2019-06-20T06:26:37.767Z,3.10
2019-06-20T06:31:31.434Z,2.40
2019-06-20T06:36:24.775Z,4.83
2019-06-20T06:41:18.211Z,4.80
2019-06-20T06:46:11.531Z,4.90
2019-06-20T06:51:04.872Z,5.57
2019-06-20T06:55:58.248Z,5.63
2019-06-20T07:00:51.538Z,6.00
2019-06-20T07:05:44.859Z,5.60
2019-06-20T07:10:38.233Z,6.10
2019-06-20T07:15:31.646Z,5.67
2019-06-20T07:20:25.569Z,6.07
2019-06-20T07:25:18.949Z,6.30
2019-06-20T07:30:15.699Z,5.97
2019-06-20T07:35:09.107Z,4.83
2019-06-20T07:40:03.137Z,4.83
2019-06-20T07:44:56.483Z,6.00
2019-06-20T07:49:50.012Z,6.17
2019-06-20T07:54:43.569Z,6.17
2019-06-20T07:59:37.176Z,6.27
2019-06-20T08:04:30.511Z,5.97
2019-06-20T08:09:24.218Z,5.17
2019-06-20T08:14:17.552Z,6.00
2019-06-20T08:19:11.312Z,6.50
2019-06-20T08:24:05.937Z,6.10
2019-06-20T08:29:17.887Z,4.90
2019-06-20T08:33:53.403Z,5.70
2019-06-20T08:38:46.948Z,4.83
2019-06-20T08:43:40.277Z,5.20
2019-06-20T08:48:34.030Z,4.60
2019-06-20T08:53:27.378Z,4.63
2019-06-20T08:58:21.106Z,4.90
2019-06-20T09:03:14.456Z,4.73
2019-06-20T09:08:11.272Z,5.57
2019-06-20T09:13:01.438Z,4.63
2019-06-20T09:17:55.272Z,5.03
2019-06-20T09:22:48.107Z,4.80
2019-06-20T09:27:41.800Z,5.03
2019-06-20T09:32:35.123Z,4.77
2019-06-20T09:37:28.487Z,5.80
2019-06-20T09:42:21.816Z,4.80
2019-06-20T09:47:15.182Z,5.03
2019-06-20T09:52:08.494Z,5.20
2019-06-20T09:57:01.836Z,5.47
2019-06-20T10:01:56.324Z,4.57
2019-06-20T10:06:48.698Z,5.40
2019-06-20T10:11:41.846Z,5.10
2019-06-20T10:16:45.229Z,5.27
2019-06-20T10:21:28.799Z,4.87
2019-06-20T10:26:22.243Z,4.10
2019-06-20T10:31:15.571Z,4.17
2019-06-20T10:36:08.945Z,4.50
2019-06-20T10:41:03.168Z,3.40
2019-06-20T10:45:56.776Z,4.33
2019-06-20T10:50:50.046Z,3.40
2019-06-20T10:55:43.872Z,3.03
2019-06-20T11:00:36.693Z,2.97
2019-06-20T11:05:30.191Z,2.80
2019-06-20T11:10:23.649Z,2.80
2019-06-20T11:15:17.263Z,2.43
2019-06-20T11:20:10.584Z,2.30
2019-06-20T11:25:04.376Z,2.20
2019-06-20T11:29:57.697Z,2.10
2019-06-20T11:34:51.194Z,2.00
2019-06-20T11:39:44.500Z,2.03
2019-06-20T11:44:38.920Z,3.07
2019-06-20T11:49:31.423Z,2.73
2019-06-20T11:54:24.816Z,2.57
2019-06-20T11:59:18.125Z,2.87
2019-06-20T12:04:11.566Z,2.73
2019-06-20T12:09:05.930Z,2.30
2019-06-20T12:13:59.342Z,2.03
2019-06-20T12:18:52.670Z,2.20
2019-06-20T12:23:46.827Z,1.83
2019-06-20T12:28:40.742Z,1.90
2019-06-20T12:33:32.907Z,2.20
2019-06-20T12:38:26.648Z,1.90
2019-06-20T12:43:20.065Z,1.47
2019-06-20T12:48:13.336Z,1.93
2019-06-20T12:53:06.675Z,2.23
2019-06-20T12:58:00.015Z,2.40
2019-06-20T13:02:53.439Z,2.17
2019-06-20T13:07:46.847Z,2.30
2019-06-20T13:12:41.397Z,3.00
2019-06-20T13:17:33.556Z,2.43
2019-06-20T13:22:26.997Z,2.13
2019-06-20T13:27:20.303Z,2.43
2019-06-20T13:32:15.584Z,2.30
2019-06-20T13:37:08.831Z,2.20
2019-06-20T13:42:02.613Z,2.40
2019-06-20T13:46:55.950Z,2.47
2019-06-20T13:51:50.249Z,2.23
2019-06-20T13:56:43.605Z,2.20
2019-06-20T14:01:35.961Z,2.30
2019-06-20T14:06:29.365Z,2.07
2019-06-20T14:11:22.848Z,2.23
2019-06-20T14:16:16.198Z,2.00
2019-06-20T14:21:09.572Z,2.20
2019-06-20T14:26:03.146Z,2.10
2019-06-20T14:30:57.855Z,2.00
2019-06-20T14:35:51.176Z,1.83
2019-06-20T14:40:44.092Z,1.70
2019-06-20T14:45:38.068Z,1.67
2019-06-20T14:50:30.166Z,1.47
2019-06-20T14:55:23.492Z,1.80
2019-06-20T15:00:16.940Z,1.80
2019-06-20T15:05:13.530Z,1.83
2019-06-20T15:10:06.937Z,1.97
2019-06-20T15:15:00.288Z,1.60
2019-06-20T15:19:54.386Z,1.93
2019-06-20T15:24:50.422Z,1.57
2019-06-20T15:29:40.490Z,1.50
2019-06-20T15:34:33.798Z,1.70
2019-06-20T15:39:27.180Z,1.50
2019-06-20T15:44:20.507Z,2.03
2019-06-20T15:49:16.393Z,1.80
2019-06-20T15:54:07.485Z,1.83
2019-06-20T15:59:00.927Z,2.50
2019-06-20T16:03:54.242Z,2.35
2019-06-20T16:08:47.681Z,3.00
2019-06-20T16:13:41.029Z,3.27
2019-06-20T16:18:34.360Z,2.33
2019-06-20T16:23:27.670Z,2.40
2019-06-20T16:28:21.077Z,2.40
2019-06-20T16:33:24.810Z,2.87
2019-06-20T16:38:07.762Z,2.43
2019-06-20T16:43:01.104Z,3.10
2019-06-20T16:47:54.699Z,2.80
2019-06-20T16:52:48.256Z,2.80
2019-06-20T16:57:41.526Z,3.07
2019-06-20T17:02:34.882Z,2.97
2019-06-20T17:07:28.521Z,2.77
2019-06-20T17:12:21.868Z,2.93
2019-06-20T17:17:15.320Z,3.13
2019-06-20T17:22:08.644Z,3.17
2019-06-20T17:27:02.299Z,4.03
2019-06-20T17:31:57.510Z,3.93
2019-06-20T17:36:49.593Z,4.30
2019-06-20T17:41:54.768Z,3.30
2019-06-20T17:46:36.265Z,3.10
2019-06-20T17:51:29.621Z,3.93
2019-06-20T17:56:23.542Z,3.87
2019-06-20T18:01:16.861Z,3.07
2019-06-20T18:06:10.426Z,3.50
2019-06-20T18:11:03.752Z,3.90
2019-06-20T18:15:57.370Z,2.83
2019-06-20T18:20:50.689Z,3.23
2019-06-20T18:25:44.115Z,3.20
2019-06-20T18:30:40.845Z,3.07
2019-06-20T18:35:34.572Z,3.00
2019-06-20T18:40:27.921Z,2.73
2019-06-20T18:45:21.532Z,2.97
2019-06-20T18:50:14.884Z,2.63
2019-06-20T18:55:08.272Z,2.63
2019-06-20T19:00:01.937Z,2.40
2019-06-20T19:04:55.268Z,2.50
2019-06-20T19:09:48.614Z,2.80
2019-06-20T19:14:42.134Z,2.47
2019-06-20T19:19:35.452Z,2.57
2019-06-20T19:24:28.835Z,2.63
2019-06-20T19:29:22.131Z,2.33
2019-06-20T19:34:15.711Z,2.40
2019-06-20T19:39:09.039Z,2.27
2019-06-20T19:44:02.399Z,2.63
2019-06-20T19:48:55.740Z,2.80
2019-06-20T19:53:49.552Z,2.80
2019-06-20T19:58:42.873Z,3.00
2019-06-20T20:03:36.622Z,2.60
2019-06-20T20:08:29.962Z,2.33
2019-06-20T20:13:23.314Z,2.10
2019-06-20T20:18:16.747Z,2.53
2019-06-20T20:23:10.172Z,2.07
2019-06-20T20:28:03.492Z,2.30
2019-06-20T20:32:56.926Z,2.10
2019-06-20T20:37:50.322Z,2.20
2019-06-20T20:42:43.751Z,1.90
2019-06-20T20:47:37.632Z,2.43
2019-06-20T20:52:31.350Z,3.30
2019-06-20T20:57:24.700Z,3.03
2019-06-20T21:02:18.061Z,2.40
2019-06-20T21:07:11.414Z,2.67
2019-06-20T21:12:04.753Z,2.50
2019-06-20T21:16:58.111Z,2.47
2019-06-20T21:21:51.610Z,2.57
2019-06-20T21:26:49.421Z,2.30
2019-06-20T21:31:38.683Z,2.70
2019-06-20T21:36:32.006Z,2.30
2019-06-20T21:41:26.292Z,2.90
2019-06-20T21:46:19.464Z,3.13
2019-06-20T21:51:12.817Z,3.03
2019-06-20T21:56:06.161Z,3.13
2019-06-20T22:00:59.511Z,3.67
2019-06-20T22:05:52.839Z,3.17
2019-06-20T22:10:46.227Z,2.90
2019-06-20T22:15:39.585Z,2.60
2019-06-20T22:20:32.965Z,3.13
2019-06-20T22:25:26.295Z,2.60
2019-06-20T22:30:27.175Z,2.93
2019-06-20T22:35:20.525Z,2.87
2019-06-20T22:40:13.896Z,3.40
2019-06-20T22:45:07.439Z,2.90
2019-06-20T22:50:01.035Z,2.40
2019-06-20T22:54:54.362Z,3.40
2019-06-20T22:59:48.076Z,2.47
2019-06-20T23:04:41.681Z,3.67
2019-06-20T23:09:35.187Z,3.47
2019-06-20T23:14:28.478Z,3.30
2019-06-20T23:19:21.831Z,3.37
2019-06-20T23:24:15.148Z,3.50
2019-06-20T23:29:23.721Z,4.00
2019-06-20T23:34:17.076Z,3.20
2019-06-20T23:39:11.099Z,3.93
2019-06-20T23:44:04.390Z,3.50
2019-06-20T23:48:58.165Z,3.57
2019-06-20T23:53:51.494Z,3.77
2019-06-20T23:58:44.981Z,3.50
